Cervena, Czech Republic
Current Conditions -  °F | °C
As of 10:30 PM on Thursday 23 Oct 2014 (Local Time) from LKMT Reporting Station
Drizzle Drizzle  
Wind Chill: 30°   Ceiling: 600
Heat Index: 39°   Visibility: 4mi
Dew Point: 37°   Wind: 16mph
Humidity: 93%   Direction: 30°NNE
Pressure: 30.15"   Gusts: NA
Location:  49.77°N, 17.55°E
Report Text: LKMT 232030Z 03014KT 6000 -DZ OVC006 04/03 Q1021 NOSIG
Loading
Personal Weather Stations






























Interactive Weather Map
Tropical Storm Tracking
New forecast layout! Learn more

10-Day Weather Forecast

Advertisements
Track Severe Weather on mobile